메인 페이지
METAR-TAF:

METAR-TAF

공항 :

진나 국제공항

카라치, 파키스탄

위도: 24-54N, 경도: 067-08E, 고도: 21m

현재 날씨관측

예보는 28분 전, 20:25시(UTC)에 발표되었습니다.
남서9kt
온도 27°C
습도 79%
기압 1002 hPa
시정: 6000m
고도 2000ft 상공 구름 많음

METAR: OPKC 202025Z 23009KT 6000 BKN020 27/23 Q1002 NOSIG

시각: 01:53 (20:53 UTC)

예보

예보는 4 시간 53분 전, 16:00시(UTC)에 발표되었습니다.
예보 대상 시간: 20일 18시부터 21일 24시까지 (UTC)
서남서8kt, 순간 최대 풍속 18kt
시정: 5000m
고도 2000ft 상공 구름 보통
고도 3000ft 상공 구름 많음
연무
일시적
20일 23시부터 21일 03시까지 (UTC)
서남서10kt
시정: 4000m
고도 1800ft 상공 구름 보통
고도 2500ft 상공 구름 많음
이슬비
시부터 (UTC)
남서10kt, 순간 최대 풍속 20kt
시정: 5000m
고도 2000ft 상공 구름 보통
고도 3000ft 상공 구름 많음
연무
시부터 (UTC)
서남서8kt, 순간 최대 풍속 18kt
시정: 5000m
고도 1800ft 상공 구름 보통
고도 2500ft 상공 구름 많음
이슬비

TAF: OPKC 201600Z 2018/2124 24008G18KT 5000 HZ SCT020 BKN030 TEMPO 2023/2103 25010KT 4000 DZ SCT018 BKN025 FM 210600Z 23010G20KT 5000 HZ SCT020 BKN030 FM 211800Z 25008G18KT 5000 DZ SCT018 BKN025

4,000개 이상의 공항 관측 자료 및 예보 (METAR 및 TAF 보고).

지도상에서 검색 가능한 기상관측소가 노란 점과 빨간 점으로 표시되어 있습니다.

기상관측소 명을 보려면 표시 위로 마우스를 이동하세요.

날씨 관측과 예보를 보려면 클릭하세요.

지도 변경 : 확대하려면 엑스 표시가 있는 녹색 버튼, 축소하려면 빼기 표시가 있는 녹색 버튼, 다음 페이지의 지도를 보려면 녹색 화살표를 클릭하세요.


METAR-TAF: